Main page
Satellite images 10-day forecastsClimateMarine weather Cyclones Lightning AirportsFAQ Newsletter About
Weather : Europe Africa North America South America Asia Australia-Oceania Others
Languages Contact

London, England

London City Airport

latitude: 51-30N, longitude: 000-03E, elevation: 5 m


METAR: EGLC 042220Z AUTO 29006KT 9999 NCD 07/01 Q1038
TAF: EGLC 041657Z 0418/0422 32010KT 9999 SCT040

Time: 22:40 (22:40 UTC)

Current weather observation

The report was made 20 minutes ago, at 22:20 UTC
Wind 6 kt from the West/Northwest
Temperature 7°C
Humidity 66%
Pressure 1038 hPa
Visibility 10 km or more

Change units

Forecast

The report was made 5 hours and 43 minutes ago, at 16:57 UTC
Forecast valid from 04 at 18 UTC to 04 at 22 UTC
Wind 10 kt from the Northwest
Visibility 10 km or more
Scattered clouds at a height of 4000 ft
The information on this site is subject to a disclaimer
Weather : Europe Africa North America South America Asia Australia-Oceania Others
Satellite images 10-day forecastsClimateMarine weather Cyclones Lightning AirportsFAQ Languages Contact Newsletter About